sensor_id;sensor_type;location;lat;lon;timestamp;temperature;humidity
13093;DHT22;6612;49.568;11.000;2022-11-14T00:00:06;7.20;65.70
13093;DHT22;6612;49.568;11.000;2022-11-14T00:02:34;7.20;65.70
13093;DHT22;6612;49.568;11.000;2022-11-14T00:05:01;7.20;65.70
13093;DHT22;6612;49.568;11.000;2022-11-14T00:07:29;7.10;65.70
13093;DHT22;6612;49.568;11.000;2022-11-14T00:09:56;7.10;65.60
13093;DHT22;6612;49.568;11.000;2022-11-14T00:12:23;7.10;65.60
13093;DHT22;6612;49.568;11.000;2022-11-14T00:14:51;7.10;65.70
13093;DHT22;6612;49.568;11.000;2022-11-14T00:17:20;7.00;65.50
13093;DHT22;6612;49.568;11.000;2022-11-14T00:19:47;7.00;65.60
13093;DHT22;6612;49.568;11.000;2022-11-14T00:22:14;7.00;65.60
13093;DHT22;6612;49.568;11.000;2022-11-14T00:24:41;7.00;65.60
13093;DHT22;6612;49.568;11.000;2022-11-14T00:27:08;7.00;65.60
13093;DHT22;6612;49.568;11.000;2022-11-14T00:29:35;7.00;65.70
13093;DHT22;6612;49.568;11.000;2022-11-14T00:32:05;6.90;65.60
13093;DHT22;6612;49.568;11.000;2022-11-14T00:34:32;6.90;65.70
13093;DHT22;6612;49.568;11.000;2022-11-14T00:36:59;6.90;65.70
13093;DHT22;6612;49.568;11.000;2022-11-14T00:39:27;6.90;65.70
13093;DHT22;6612;49.568;11.000;2022-11-14T00:41:53;6.90;65.70
13093;DHT22;6612;49.568;11.000;2022-11-14T00:44:21;6.80;65.60
13093;DHT22;6612;49.568;11.000;2022-11-14T00:46:48;6.80;65.60
13093;DHT22;6612;49.568;11.000;2022-11-14T00:49:16;6.80;65.60
13093;DHT22;6612;49.568;11.000;2022-11-14T00:51:43;6.80;65.60
13093;DHT22;6612;49.568;11.000;2022-11-14T00:54:10;6.80;65.60
13093;DHT22;6612;49.568;11.000;2022-11-14T00:56:37;6.80;65.60
13093;DHT22;6612;49.568;11.000;2022-11-14T00:59:04;6.80;65.60
13093;DHT22;6612;49.568;11.000;2022-11-14T01:01:31;6.70;65.60
13093;DHT22;6612;49.568;11.000;2022-11-14T01:03:58;6.70;65.50
13093;DHT22;6612;49.568;11.000;2022-11-14T01:06:27;6.70;65.60
13093;DHT22;6612;49.568;11.000;2022-11-14T01:08:54;6.70;65.50
13093;DHT22;6612;49.568;11.000;2022-11-14T01:11:21;6.70;65.60
13093;DHT22;6612;49.568;11.000;2022-11-14T01:13:48;6.70;65.60
13093;DHT22;6612;49.568;11.000;2022-11-14T01:16:16;6.60;65.40
13093;DHT22;6612;49.568;11.000;2022-11-14T01:18:44;6.60;65.40
13093;DHT22;6612;49.568;11.000;2022-11-14T01:21:12;6.60;65.50
13093;DHT22;6612;49.568;11.000;2022-11-14T01:23:41;6.60;65.50
13093;DHT22;6612;49.568;11.000;2022-11-14T01:26:09;6.60;65.50
13093;DHT22;6612;49.568;11.000;2022-11-14T01:28:37;6.60;65.50
13093;DHT22;6612;49.568;11.000;2022-11-14T01:31:09;6.60;65.60
13093;DHT22;6612;49.568;11.000;2022-11-14T01:33:36;6.60;65.60
13093;DHT22;6612;49.568;11.000;2022-11-14T01:36:04;6.50;65.60
13093;DHT22;6612;49.568;11.000;2022-11-14T01:38:32;6.50;65.60
13093;DHT22;6612;49.568;11.000;2022-11-14T01:41:01;6.50;65.60
13093;DHT22;6612;49.568;11.000;2022-11-14T01:43:30;6.50;65.60
13093;DHT22;6612;49.568;11.000;2022-11-14T01:46:00;6.50;65.60
13093;DHT22;6612;49.568;11.000;2022-11-14T01:48:34;6.50;65.70
13093;DHT22;6612;49.568;11.000;2022-11-14T01:51:04;6.50;65.70
13093;DHT22;6612;49.568;11.000;2022-11-14T01:53:32;6.50;65.80
13093;DHT22;6612;49.568;11.000;2022-11-14T01:56:03;6.50;65.90
13093;DHT22;6612;49.568;11.000;2022-11-14T01:58:32;6.50;65.90
13093;DHT22;6612;49.568;11.000;2022-11-14T02:01:01;6.50;66.00
13093;DHT22;6612;49.568;11.000;2022-11-14T02:03:29;6.40;65.90
13093;DHT22;6612;49.568;11.000;2022-11-14T02:05:57;6.40;65.90
13093;DHT22;6612;49.568;11.000;2022-11-14T02:08:26;6.40;65.90
13093;DHT22;6612;49.568;11.000;2022-11-14T02:10:53;6.40;65.90
13093;DHT22;6612;49.568;11.000;2022-11-14T02:13:21;6.40;66.00
13093;DHT22;6612;49.568;11.000;2022-11-14T02:15:48;6.40;65.90
13093;DHT22;6612;49.568;11.000;2022-11-14T02:18:15;6.40;65.90
13093;DHT22;6612;49.568;11.000;2022-11-14T02:20:44;6.40;65.90
13093;DHT22;6612;49.568;11.000;2022-11-14T02:23:11;6.40;66.00
13093;DHT22;6612;49.568;11.000;2022-11-14T02:25:39;6.40;66.20
13093;DHT22;6612;49.568;11.000;2022-11-14T02:28:08;6.40;66.60
13093;DHT22;6612;49.568;11.000;2022-11-14T02:30:36;6.50;67.20
13093;DHT22;6612;49.568;11.000;2022-11-14T02:33:03;6.50;67.50
13093;DHT22;6612;49.568;11.000;2022-11-14T02:35:30;6.50;67.90
13093;DHT22;6612;49.568;11.000;2022-11-14T02:37:58;6.60;68.30
13093;DHT22;6612;49.568;11.000;2022-11-14T02:40:25;6.60;68.50
13093;DHT22;6612;49.568;11.000;2022-11-14T02:42:52;6.70;68.70
13093;DHT22;6612;49.568;11.000;2022-11-14T02:45:19;6.70;68.70
13093;DHT22;6612;49.568;11.000;2022-11-14T02:47:46;6.70;68.80
13093;DHT22;6612;49.568;11.000;2022-11-14T02:50:13;6.80;68.80
13093;DHT22;6612;49.568;11.000;2022-11-14T02:52:40;6.80;68.70
13093;DHT22;6612;49.568;11.000;2022-11-14T02:55:09;6.80;68.70
13093;DHT22;6612;49.568;11.000;2022-11-14T02:57:36;6.90;69.00
13093;DHT22;6612;49.568;11.000;2022-11-14T03:00:05;6.90;69.00
13093;DHT22;6612;49.568;11.000;2022-11-14T03:02:32;7.00;69.30
13093;DHT22;6612;49.568;11.000;2022-11-14T03:04:59;7.00;69.20
13093;DHT22;6612;49.568;11.000;2022-11-14T03:07:26;7.00;69.00
13093;DHT22;6612;49.568;11.000;2022-11-14T03:09:53;7.00;68.70
13093;DHT22;6612;49.568;11.000;2022-11-14T03:12:21;7.00;68.50
13093;DHT22;6612;49.568;11.000;2022-11-14T03:14:48;7.00;68.30
13093;DHT22;6612;49.568;11.000;2022-11-14T03:17:15;7.00;68.30
13093;DHT22;6612;49.568;11.000;2022-11-14T03:19:42;7.00;68.20
13093;DHT22;6612;49.568;11.000;2022-11-14T03:22:09;7.00;68.40
13093;DHT22;6612;49.568;11.000;2022-11-14T03:24:36;7.00;68.30
13093;DHT22;6612;49.568;11.000;2022-11-14T03:27:03;7.00;68.10
13093;DHT22;6612;49.568;11.000;2022-11-14T03:29:32;7.00;67.90
13093;DHT22;6612;49.568;11.000;2022-11-14T03:31:58;7.00;67.70
13093;DHT22;6612;49.568;11.000;2022-11-14T03:34:25;6.90;67.40
13093;DHT22;6612;49.568;11.000;2022-11-14T03:36:52;6.90;67.20
13093;DHT22;6612;49.568;11.000;2022-11-14T03:39:20;6.90;67.00
13093;DHT22;6612;49.568;11.000;2022-11-14T03:41:47;6.90;67.00
13093;DHT22;6612;49.568;11.000;2022-11-14T03:44:13;6.80;66.80
13093;DHT22;6612;49.568;11.000;2022-11-14T03:46:42;6.80;66.80
13093;DHT22;6612;49.568;11.000;2022-11-14T03:49:09;6.80;66.70
13093;DHT22;6612;49.568;11.000;2022-11-14T03:51:37;6.80;66.60
13093;DHT22;6612;49.568;11.000;2022-11-14T03:54:04;6.70;66.50
13093;DHT22;6612;49.568;11.000;2022-11-14T03:56:31;6.70;66.40
13093;DHT22;6612;49.568;11.000;2022-11-14T03:58:58;6.70;66.40
13093;DHT22;6612;49.568;11.000;2022-11-14T04:01:25;6.60;66.30
13093;DHT22;6612;49.568;11.000;2022-11-14T04:03:54;6.60;66.30
13093;DHT22;6612;49.568;11.000;2022-11-14T04:06:21;6.60;66.30
13093;DHT22;6612;49.568;11.000;2022-11-14T04:08:48;6.60;66.40
13093;DHT22;6612;49.568;11.000;2022-11-14T04:11:16;6.50;66.40
13093;DHT22;6612;49.568;11.000;2022-11-14T04:13:43;6.50;66.50
13093;DHT22;6612;49.568;11.000;2022-11-14T04:16:10;6.50;66.50
13093;DHT22;6612;49.568;11.000;2022-11-14T04:18:37;6.50;66.60
13093;DHT22;6612;49.568;11.000;2022-11-14T04:21:05;6.50;66.60
13093;DHT22;6612;49.568;11.000;2022-11-14T04:23:32;6.50;66.60
13093;DHT22;6612;49.568;11.000;2022-11-14T04:25:59;6.50;67.40
13093;DHT22;6612;49.568;11.000;2022-11-14T04:28:26;6.40;66.50
13093;DHT22;6612;49.568;11.000;2022-11-14T04:30:53;6.40;66.40
13093;DHT22;6612;49.568;11.000;2022-11-14T04:33:20;6.40;66.40
13093;DHT22;6612;49.568;11.000;2022-11-14T04:35:47;6.40;66.50
13093;DHT22;6612;49.568;11.000;2022-11-14T04:38:16;6.40;66.60
13093;DHT22;6612;49.568;11.000;2022-11-14T04:40:47;6.40;66.70
13093;DHT22;6612;49.568;11.000;2022-11-14T04:43:14;6.40;66.80
13093;DHT22;6612;49.568;11.000;2022-11-14T04:45:41;6.30;66.70
13093;DHT22;6612;49.568;11.000;2022-11-14T04:48:08;6.30;66.80
13093;DHT22;6612;49.568;11.000;2022-11-14T04:50:35;6.30;66.90
13093;DHT22;6612;49.568;11.000;2022-11-14T04:53:03;6.30;66.90
13093;DHT22;6612;49.568;11.000;2022-11-14T04:55:31;6.30;66.90
13093;DHT22;6612;49.568;11.000;2022-11-14T04:57:58;6.30;66.90
13093;DHT22;6612;49.568;11.000;2022-11-14T05:00:26;6.30;66.90
13093;DHT22;6612;49.568;11.000;2022-11-14T05:02:53;6.30;67.00
13093;DHT22;6612;49.568;11.000;2022-11-14T05:05:20;6.30;67.10
13093;DHT22;6612;49.568;11.000;2022-11-14T05:07:47;6.30;67.10
13093;DHT22;6612;49.568;11.000;2022-11-14T05:10:14;6.30;67.10
13093;DHT22;6612;49.568;11.000;2022-11-14T05:12:42;6.30;67.10
13093;DHT22;6612;49.568;11.000;2022-11-14T05:15:09;6.30;67.10
13093;DHT22;6612;49.568;11.000;2022-11-14T05:17:36;6.30;67.10
13093;DHT22;6612;49.568;11.000;2022-11-14T05:20:04;6.30;67.20
13093;DHT22;6612;49.568;11.000;2022-11-14T05:22:31;6.30;67.20
13093;DHT22;6612;49.568;11.000;2022-11-14T05:24:58;6.30;67.20
13093;DHT22;6612;49.568;11.000;2022-11-14T05:27:25;6.30;67.20
13093;DHT22;6612;49.568;11.000;2022-11-14T05:29:54;6.30;67.20
13093;DHT22;6612;49.568;11.000;2022-11-14T05:32:21;6.30;67.20
13093;DHT22;6612;49.568;11.000;2022-11-14T05:34:48;6.20;67.10
13093;DHT22;6612;49.568;11.000;2022-11-14T05:37:15;6.30;67.20
13093;DHT22;6612;49.568;11.000;2022-11-14T05:39:42;6.20;67.20
13093;DHT22;6612;49.568;11.000;2022-11-14T05:42:09;6.20;67.20
13093;DHT22;6612;49.568;11.000;2022-11-14T05:44:36;6.30;67.30
13093;DHT22;6612;49.568;11.000;2022-11-14T05:47:04;6.20;67.30
13093;DHT22;6612;49.568;11.000;2022-11-14T05:49:31;6.30;67.50
13093;DHT22;6612;49.568;11.000;2022-11-14T05:51:58;6.30;67.50
13093;DHT22;6612;49.568;11.000;2022-11-14T05:54:25;6.30;67.60
13093;DHT22;6612;49.568;11.000;2022-11-14T05:56:52;6.30;67.70
13093;DHT22;6612;49.568;11.000;2022-11-14T05:59:19;6.30;67.70
13093;DHT22;6612;49.568;11.000;2022-11-14T06:01:46;6.30;67.70
13093;DHT22;6612;49.568;11.000;2022-11-14T06:04:15;6.30;67.80
13093;DHT22;6612;49.568;11.000;2022-11-14T06:06:42;6.30;67.80
13093;DHT22;6612;49.568;11.000;2022-11-14T06:09:09;6.30;67.90
13093;DHT22;6612;49.568;11.000;2022-11-14T06:11:36;6.30;67.90
13093;DHT22;6612;49.568;11.000;2022-11-14T06:14:03;6.30;67.90
13093;DHT22;6612;49.568;11.000;2022-11-14T06:16:30;6.30;68.00
13093;DHT22;6612;49.568;11.000;2022-11-14T06:18:57;6.30;68.00
13093;DHT22;6612;49.568;11.000;2022-11-14T06:21:25;6.40;68.10
13093;DHT22;6612;49.568;11.000;2022-11-14T06:23:52;6.40;68.10
13093;DHT22;6612;49.568;11.000;2022-11-14T06:26:21;6.40;68.20
13093;DHT22;6612;49.568;11.000;2022-11-14T06:28:48;6.40;68.20
13093;DHT22;6612;49.568;11.000;2022-11-14T06:31:16;6.40;68.20
13093;DHT22;6612;49.568;11.000;2022-11-14T06:33:43;6.40;68.30
13093;DHT22;6612;49.568;11.000;2022-11-14T06:36:11;6.40;68.30
13093;DHT22;6612;49.568;11.000;2022-11-14T06:38:41;6.40;68.40
13093;DHT22;6612;49.568;11.000;2022-11-14T06:41:10;6.50;68.60
13093;DHT22;6612;49.568;11.000;2022-11-14T06:43:38;6.50;68.60
13093;DHT22;6612;49.568;11.000;2022-11-14T06:46:06;6.50;68.60
13093;DHT22;6612;49.568;11.000;2022-11-14T06:48:34;6.50;68.70
13093;DHT22;6612;49.568;11.000;2022-11-14T06:51:02;6.60;68.80
13093;DHT22;6612;49.568;11.000;2022-11-14T06:53:31;6.60;69.70
13093;DHT22;6612;49.568;11.000;2022-11-14T06:56:01;6.60;68.90
13093;DHT22;6612;49.568;11.000;2022-11-14T06:58:30;6.70;69.10
13093;DHT22;6612;49.568;11.000;2022-11-14T07:01:02;6.70;69.10
13093;DHT22;6612;49.568;11.000;2022-11-14T07:03:29;6.70;69.10
13093;DHT22;6612;49.568;11.000;2022-11-14T07:05:57;6.70;69.20
13093;DHT22;6612;49.568;11.000;2022-11-14T07:08:24;6.80;69.20
13093;DHT22;6612;49.568;11.000;2022-11-14T07:10:51;6.80;69.20
13093;DHT22;6612;49.568;11.000;2022-11-14T07:13:19;6.80;69.10
13093;DHT22;6612;49.568;11.000;2022-11-14T07:15:50;6.80;69.20
13093;DHT22;6612;49.568;11.000;2022-11-14T07:18:17;6.90;69.30
13093;DHT22;6612;49.568;11.000;2022-11-14T07:20:45;7.00;69.70
13093;DHT22;6612;49.568;11.000;2022-11-14T07:23:12;7.00;69.90
13093;DHT22;6612;49.568;11.000;2022-11-14T07:25:39;7.10;70.00
13093;DHT22;6612;49.568;11.000;2022-11-14T07:28:06;7.10;70.40
13093;DHT22;6612;49.568;11.000;2022-11-14T07:30:35;7.20;70.90
13093;DHT22;6612;49.568;11.000;2022-11-14T07:33:02;7.30;71.60
13093;DHT22;6612;49.568;11.000;2022-11-14T07:35:29;7.50;72.40
13093;DHT22;6612;49.568;11.000;2022-11-14T07:38:00;7.70;72.90
13093;DHT22;6612;49.568;11.000;2022-11-14T07:40:28;7.80;72.90
13093;DHT22;6612;49.568;11.000;2022-11-14T07:42:57;8.00;73.00
13093;DHT22;6612;49.568;11.000;2022-11-14T07:45:25;8.20;73.40
13093;DHT22;6612;49.568;11.000;2022-11-14T07:47:55;8.40;74.40
13093;DHT22;6612;49.568;11.000;2022-11-14T07:50:22;8.70;75.40
13093;DHT22;6612;49.568;11.000;2022-11-14T07:52:50;9.00;76.60
13093;DHT22;6612;49.568;11.000;2022-11-14T07:55:17;9.40;77.40
13093;DHT22;6612;49.568;11.000;2022-11-14T07:57:45;9.80;77.90
13093;DHT22;6612;49.568;11.000;2022-11-14T08:00:13;10.20;76.90
13093;DHT22;6612;49.568;11.000;2022-11-14T08:02:41;10.60;76.60
13093;DHT22;6612;49.568;11.000;2022-11-14T08:05:09;11.10;76.30
13093;DHT22;6612;49.568;11.000;2022-11-14T08:07:37;11.50;74.80
13093;DHT22;6612;49.568;11.000;2022-11-14T08:10:04;11.80;74.10
13093;DHT22;6612;49.568;11.000;2022-11-14T08:12:32;12.20;72.80
13093;DHT22;6612;49.568;11.000;2022-11-14T08:14:59;12.40;71.60
13093;DHT22;6612;49.568;11.000;2022-11-14T08:17:26;12.60;70.00
13093;DHT22;6612;49.568;11.000;2022-11-14T08:19:53;12.70;68.60
13093;DHT22;6612;49.568;11.000;2022-11-14T08:22:21;12.80;67.90
13093;DHT22;6612;49.568;11.000;2022-11-14T08:24:48;12.80;67.10
13093;DHT22;6612;49.568;11.000;2022-11-14T08:27:15;12.70;66.60
13093;DHT22;6612;49.568;11.000;2022-11-14T08:29:42;12.70;66.30
13093;DHT22;6612;49.568;11.000;2022-11-14T08:32:09;12.50;65.70
13093;DHT22;6612;49.568;11.000;2022-11-14T08:34:36;12.40;65.50
13093;DHT22;6612;49.568;11.000;2022-11-14T08:37:03;12.40;65.80
13093;DHT22;6612;49.568;11.000;2022-11-14T08:39:32;12.20;65.80
13093;DHT22;6612;49.568;11.000;2022-11-14T08:41:59;12.10;65.60
13093;DHT22;6612;49.568;11.000;2022-11-14T08:44:26;12.10;66.10
13093;DHT22;6612;49.568;11.000;2022-11-14T08:46:53;12.10;65.80
13093;DHT22;6612;49.568;11.000;2022-11-14T08:49:20;12.00;65.30
13093;DHT22;6612;49.568;11.000;2022-11-14T08:51:47;11.90;65.00
13093;DHT22;6612;49.568;11.000;2022-11-14T08:54:17;11.80;65.00
13093;DHT22;6612;49.568;11.000;2022-11-14T08:56:45;11.80;65.10
13093;DHT22;6612;49.568;11.000;2022-11-14T08:59:12;11.70;64.80
13093;DHT22;6612;49.568;11.000;2022-11-14T09:01:39;11.70;64.90
13093;DHT22;6612;49.568;11.000;2022-11-14T09:04:06;11.60;64.90
13093;DHT22;6612;49.568;11.000;2022-11-14T09:06:33;11.50;65.00
13093;DHT22;6612;49.568;11.000;2022-11-14T09:09:01;11.40;65.00
13093;DHT22;6612;49.568;11.000;2022-11-14T09:11:28;11.40;65.40
13093;DHT22;6612;49.568;11.000;2022-11-14T09:13:56;11.40;66.40
13093;DHT22;6612;49.568;11.000;2022-11-14T09:16:23;11.40;66.80
13093;DHT22;6612;49.568;11.000;2022-11-14T09:18:50;11.50;67.50
13093;DHT22;6612;49.568;11.000;2022-11-14T09:21:17;11.60;68.10
13093;DHT22;6612;49.568;11.000;2022-11-14T09:23:45;11.70;67.90
13093;DHT22;6612;49.568;11.000;2022-11-14T09:26:13;11.80;67.30
13093;DHT22;6612;49.568;11.000;2022-11-14T09:28:40;11.80;66.90
13093;DHT22;6612;49.568;11.000;2022-11-14T09:31:11;11.90;66.50
13093;DHT22;6612;49.568;11.000;2022-11-14T09:33:38;11.90;66.00
13093;DHT22;6612;49.568;11.000;2022-11-14T09:36:08;11.90;66.10
13093;DHT22;6612;49.568;11.000;2022-11-14T09:38:36;11.90;66.00
13093;DHT22;6612;49.568;11.000;2022-11-14T09:41:12;11.90;66.30
13093;DHT22;6612;49.568;11.000;2022-11-14T09:46:42;12.00;66.20
13093;DHT22;6612;49.568;11.000;2022-11-14T09:49:19;12.10;66.80
13093;DHT22;6612;49.568;11.000;2022-11-14T09:51:55;12.10;67.20
13093;DHT22;6612;49.568;11.000;2022-11-14T09:54:26;12.20;67.30
13093;DHT22;6612;49.568;11.000;2022-11-14T09:56:54;12.30;68.10
13093;DHT22;6612;49.568;11.000;2022-11-14T09:59:21;12.50;68.40
13093;DHT22;6612;49.568;11.000;2022-11-14T10:01:56;12.60;67.80
13093;DHT22;6612;49.568;11.000;2022-11-14T10:04:36;12.70;66.80
13093;DHT22;6612;49.568;11.000;2022-11-14T10:07:12;12.80;66.50
13093;DHT22;6612;49.568;11.000;2022-11-14T10:09:51;12.90;66.70
13093;DHT22;6612;49.568;11.000;2022-11-14T10:12:22;13.00;67.20
13093;DHT22;6612;49.568;11.000;2022-11-14T10:15:14;13.10;68.60
13093;DHT22;6612;49.568;11.000;2022-11-14T10:20:39;13.50;68.20
13093;DHT22;6612;49.568;11.000;2022-11-14T10:23:30;13.70;69.00
13093;DHT22;6612;49.568;11.000;2022-11-14T10:26:07;14.00;68.10
13093;DHT22;6612;49.568;11.000;2022-11-14T10:28:57;14.20;67.70
13093;DHT22;6612;49.568;11.000;2022-11-14T10:31:33;14.30;65.90
13093;DHT22;6612;49.568;11.000;2022-11-14T10:34:06;14.50;66.80
13093;DHT22;6612;49.568;11.000;2022-11-14T10:36:48;14.60;66.30
13093;DHT22;6612;49.568;11.000;2022-11-14T10:39:20;14.60;65.00
13093;DHT22;6612;49.568;11.000;2022-11-14T10:41:52;14.70;65.70
13093;DHT22;6612;49.568;11.000;2022-11-14T10:44:24;14.70;65.60
13093;DHT22;6612;49.568;11.000;2022-11-14T10:46:55;14.70;65.10
13093;DHT22;6612;49.568;11.000;2022-11-14T10:49:31;14.70;64.70
13093;DHT22;6612;49.568;11.000;2022-11-14T10:52:03;14.70;64.60
13093;DHT22;6612;49.568;11.000;2022-11-14T10:54:37;14.70;64.80
13093;DHT22;6612;49.568;11.000;2022-11-14T10:57:13;14.70;64.20
13093;DHT22;6612;49.568;11.000;2022-11-14T10:59:41;14.70;63.80
13093;DHT22;6612;49.568;11.000;2022-11-14T11:02:09;14.60;64.50
13093;DHT22;6612;49.568;11.000;2022-11-14T11:04:38;14.60;64.50
13093;DHT22;6612;49.568;11.000;2022-11-14T11:07:22;14.60;64.50
13093;DHT22;6612;49.568;11.000;2022-11-14T11:10:20;14.60;63.70
13093;DHT22;6612;49.568;11.000;2022-11-14T11:13:04;14.60;64.10
13093;DHT22;6612;49.568;11.000;2022-11-14T11:15:38;14.60;65.10
13093;DHT22;6612;49.568;11.000;2022-11-14T11:18:23;14.60;64.50
13093;DHT22;6612;49.568;11.000;2022-11-14T11:21:03;14.60;64.00
13093;DHT22;6612;49.568;11.000;2022-11-14T11:23:31;14.60;64.00
13093;DHT22;6612;49.568;11.000;2022-11-14T11:25:59;14.60;65.10
13093;DHT22;6612;49.568;11.000;2022-11-14T11:28:32;14.60;65.70
13093;DHT22;6612;49.568;11.000;2022-11-14T11:31:01;14.70;65.00
13093;DHT22;6612;49.568;11.000;2022-11-14T11:33:29;14.70;65.20
13093;DHT22;6612;49.568;11.000;2022-11-14T11:35:59;14.80;65.30
13093;DHT22;6612;49.568;11.000;2022-11-14T11:38:30;14.80;64.90
13093;DHT22;6612;49.568;11.000;2022-11-14T11:41:04;14.80;64.70
13093;DHT22;6612;49.568;11.000;2022-11-14T11:43:37;14.90;64.60
13093;DHT22;6612;49.568;11.000;2022-11-14T11:46:11;15.00;64.70
13093;DHT22;6612;49.568;11.000;2022-11-14T11:48:40;15.00;64.30
13093;DHT22;6612;49.568;11.000;2022-11-14T11:51:12;15.00;64.70
13093;DHT22;6612;49.568;11.000;2022-11-14T11:53:45;15.10;64.10
13093;DHT22;6612;49.568;11.000;2022-11-14T11:56:18;15.10;64.30
13093;DHT22;6612;49.568;11.000;2022-11-14T11:58:48;15.20;64.20
13093;DHT22;6612;49.568;11.000;2022-11-14T12:01:17;15.20;64.40
13093;DHT22;6612;49.568;11.000;2022-11-14T12:03:47;15.20;64.30
13093;DHT22;6612;49.568;11.000;2022-11-14T12:06:16;15.30;63.90
13093;DHT22;6612;49.568;11.000;2022-11-14T12:09:09;15.30;63.60
13093;DHT22;6612;49.568;11.000;2022-11-14T12:11:43;15.40;62.60
13093;DHT22;6612;49.568;11.000;2022-11-14T12:14:34;15.40;63.10
13093;DHT22;6612;49.568;11.000;2022-11-14T12:17:21;15.50;62.00
13093;DHT22;6612;49.568;11.000;2022-11-14T12:23:41;15.50;61.40
13093;DHT22;6612;49.568;11.000;2022-11-14T12:26:24;15.60;61.40
13093;DHT22;6612;49.568;11.000;2022-11-14T12:29:15;15.60;62.30
13093;DHT22;6612;49.568;11.000;2022-11-14T12:31:47;15.60;62.00
13093;DHT22;6612;49.568;11.000;2022-11-14T12:34:23;15.60;62.90
13093;DHT22;6612;49.568;11.000;2022-11-14T12:36:51;15.70;61.80
13093;DHT22;6612;49.568;11.000;2022-11-14T12:39:23;15.70;63.40
13093;DHT22;6612;49.568;11.000;2022-11-14T12:42:00;15.70;61.70
13093;DHT22;6612;49.568;11.000;2022-11-14T12:44:33;15.70;61.40
13093;DHT22;6612;49.568;11.000;2022-11-14T12:47:18;15.70;62.10
13093;DHT22;6612;49.568;11.000;2022-11-14T12:50:03;15.70;61.10
13093;DHT22;6612;49.568;11.000;2022-11-14T12:52:49;15.80;61.20
13093;DHT22;6612;49.568;11.000;2022-11-14T12:58:25;15.80;60.80
13093;DHT22;6612;49.568;11.000;2022-11-14T13:01:09;15.80;61.70
13093;DHT22;6612;49.568;11.000;2022-11-14T13:03:50;15.80;61.30
13093;DHT22;6612;49.568;11.000;2022-11-14T13:06:24;15.90;61.60
13093;DHT22;6612;49.568;11.000;2022-11-14T13:09:19;15.90;62.00
13093;DHT22;6612;49.568;11.000;2022-11-14T13:11:49;15.90;60.80
13093;DHT22;6612;49.568;11.000;2022-11-14T13:14:49;15.90;62.20
13093;DHT22;6612;49.568;11.000;2022-11-14T13:17:34;15.90;60.80
13093;DHT22;6612;49.568;11.000;2022-11-14T13:20:30;16.00;62.50
13093;DHT22;6612;49.568;11.000;2022-11-14T13:23:56;16.00;61.40
13093;DHT22;6612;49.568;11.000;2022-11-14T13:26:51;16.00;60.80
13093;DHT22;6612;49.568;11.000;2022-11-14T13:32:57;16.10;61.70
13093;DHT22;6612;49.568;11.000;2022-11-14T13:35:53;16.10;60.90
13093;DHT22;6612;49.568;11.000;2022-11-14T13:38:59;16.10;60.80
13093;DHT22;6612;49.568;11.000;2022-11-14T13:41:55;16.10;60.60
13093;DHT22;6612;49.568;11.000;2022-11-14T13:44:55;16.10;60.50
13093;DHT22;6612;49.568;11.000;2022-11-14T13:47:59;16.10;61.30
13093;DHT22;6612;49.568;11.000;2022-11-14T13:50:34;16.20;60.90
13093;DHT22;6612;49.568;11.000;2022-11-14T13:53:11;16.20;61.60
13093;DHT22;6612;49.568;11.000;2022-11-14T13:55:54;16.20;61.30
13093;DHT22;6612;49.568;11.000;2022-11-14T13:58:30;16.20;60.90
13093;DHT22;6612;49.568;11.000;2022-11-14T14:01:10;16.20;61.10
13093;DHT22;6612;49.568;11.000;2022-11-14T14:03:54;16.20;60.80
13093;DHT22;6612;49.568;11.000;2022-11-14T14:06:38;16.20;60.70
13093;DHT22;6612;49.568;11.000;2022-11-14T14:09:27;16.30;60.60
13093;DHT22;6612;49.568;11.000;2022-11-14T14:12:17;16.30;60.20
13093;DHT22;6612;49.568;11.000;2022-11-14T14:15:03;16.30;60.60
13093;DHT22;6612;49.568;11.000;2022-11-14T14:17:38;16.30;60.20
13093;DHT22;6612;49.568;11.000;2022-11-14T14:20:21;16.30;60.60
13093;DHT22;6612;49.568;11.000;2022-11-14T14:23:00;16.30;60.10
13093;DHT22;6612;49.568;11.000;2022-11-14T14:25:33;16.30;60.20
13093;DHT22;6612;49.568;11.000;2022-11-14T14:28:09;16.30;60.50
13093;DHT22;6612;49.568;11.000;2022-11-14T14:30:40;16.30;60.30
13093;DHT22;6612;49.568;11.000;2022-11-14T14:33:11;16.30;60.90
13093;DHT22;6612;49.568;11.000;2022-11-14T14:35:48;16.20;60.00
13093;DHT22;6612;49.568;11.000;2022-11-14T14:38:22;16.20;59.70
13093;DHT22;6612;49.568;11.000;2022-11-14T14:40:53;16.20;59.80
13093;DHT22;6612;49.568;11.000;2022-11-14T14:43:27;16.10;60.00
13093;DHT22;6612;49.568;11.000;2022-11-14T14:45:56;16.10;59.60
13093;DHT22;6612;49.568;11.000;2022-11-14T14:48:25;16.10;60.30
13093;DHT22;6612;49.568;11.000;2022-11-14T14:50:56;16.10;60.00
13093;DHT22;6612;49.568;11.000;2022-11-14T14:53:26;16.00;59.70
13093;DHT22;6612;49.568;11.000;2022-11-14T14:55:56;16.00;59.80
13093;DHT22;6612;49.568;11.000;2022-11-14T14:58:25;16.00;59.80
13093;DHT22;6612;49.568;11.000;2022-11-14T15:00:55;15.90;59.60
13093;DHT22;6612;49.568;11.000;2022-11-14T15:03:25;15.90;59.60
13093;DHT22;6612;49.568;11.000;2022-11-14T15:05:59;15.80;59.60
13093;DHT22;6612;49.568;11.000;2022-11-14T15:08:28;15.80;59.20
13093;DHT22;6612;49.568;11.000;2022-11-14T15:10:58;15.80;59.60
13093;DHT22;6612;49.568;11.000;2022-11-14T15:13:27;15.70;59.40
13093;DHT22;6612;49.568;11.000;2022-11-14T15:15:55;15.70;59.50
13093;DHT22;6612;49.568;11.000;2022-11-14T15:18:24;15.70;59.50
13093;DHT22;6612;49.568;11.000;2022-11-14T15:21:15;15.60;59.40
13093;DHT22;6612;49.568;11.000;2022-11-14T15:23:57;15.60;58.70
13093;DHT22;6612;49.568;11.000;2022-11-14T15:26:25;15.60;59.00
13093;DHT22;6612;49.568;11.000;2022-11-14T15:29:03;15.50;59.50
13093;DHT22;6612;49.568;11.000;2022-11-14T15:31:31;15.40;58.80
13093;DHT22;6612;49.568;11.000;2022-11-14T15:34:03;15.40;59.50
13093;DHT22;6612;49.568;11.000;2022-11-14T15:36:32;15.40;59.50
13093;DHT22;6612;49.568;11.000;2022-11-14T15:39:02;15.30;59.30
13093;DHT22;6612;49.568;11.000;2022-11-14T15:41:30;15.30;59.30
13093;DHT22;6612;49.568;11.000;2022-11-14T15:43:57;15.20;59.40
13093;DHT22;6612;49.568;11.000;2022-11-14T15:46:39;15.20;59.60
13093;DHT22;6612;49.568;11.000;2022-11-14T15:49:08;15.20;59.00
13093;DHT22;6612;49.568;11.000;2022-11-14T15:51:44;15.10;59.50
13093;DHT22;6612;49.568;11.000;2022-11-14T15:54:26;15.10;59.00
13093;DHT22;6612;49.568;11.000;2022-11-14T15:56:55;15.00;58.90
13093;DHT22;6612;49.568;11.000;2022-11-14T15:59:23;15.00;59.40
13093;DHT22;6612;49.568;11.000;2022-11-14T16:01:52;15.00;59.60
13093;DHT22;6612;49.568;11.000;2022-11-14T16:04:24;14.90;59.50
13093;DHT22;6612;49.568;11.000;2022-11-14T16:06:53;14.90;59.50
13093;DHT22;6612;49.568;11.000;2022-11-14T16:09:20;14.80;59.50
13093;DHT22;6612;49.568;11.000;2022-11-14T16:11:47;14.80;59.60
13093;DHT22;6612;49.568;11.000;2022-11-14T16:14:14;14.80;59.70
13093;DHT22;6612;49.568;11.000;2022-11-14T16:16:41;14.70;59.70